sensor_id;sensor_type;location;lat;lon;timestamp;pressure;altitude;pressure_sealevel;temperature;humidity
11985;BME280;6052;53.246;10.368;2023-06-14T00:00:15;101309.75;;;23.54;53.87
11985;BME280;6052;53.246;10.368;2023-06-14T00:02:48;101307.72;;;23.95;52.41
11985;BME280;6052;53.246;10.368;2023-06-14T00:05:18;101317.56;;;23.47;53.89
11985;BME280;6052;53.246;10.368;2023-06-14T00:07:49;101312.75;;;23.66;53.93
11985;BME280;6052;53.246;10.368;2023-06-14T00:10:20;101312.00;;;23.39;54.29
11985;BME280;6052;53.246;10.368;2023-06-14T00:12:49;101323.97;;;23.43;54.37
11985;BME280;6052;53.246;10.368;2023-06-14T00:15:19;101318.00;;;23.27;54.44
11985;BME280;6052;53.246;10.368;2023-06-14T00:17:52;101319.91;;;23.40;54.26
11985;BME280;6052;53.246;10.368;2023-06-14T00:20:23;101320.81;;;23.36;54.45
11985;BME280;6052;53.246;10.368;2023-06-14T00:22:53;101325.00;;;23.20;55.09
11985;BME280;6052;53.246;10.368;2023-06-14T00:25:23;101332.81;;;23.26;54.93
11985;BME280;6052;53.246;10.368;2023-06-14T00:27:56;101334.13;;;23.42;54.56
11985;BME280;6052;53.246;10.368;2023-06-14T00:30:26;101342.84;;;23.31;54.57
11985;BME280;6052;53.246;10.368;2023-06-14T00:33:01;101336.44;;;23.08;55.86
11985;BME280;6052;53.246;10.368;2023-06-14T00:35:31;101341.72;;;23.05;55.87
11985;BME280;6052;53.246;10.368;2023-06-14T00:38:00;101341.63;;;23.10;54.87
11985;BME280;6052;53.246;10.368;2023-06-14T00:40:29;101338.91;;;23.37;54.36
11985;BME280;6052;53.246;10.368;2023-06-14T00:42:59;101335.06;;;23.38;54.65
11985;BME280;6052;53.246;10.368;2023-06-14T00:45:28;101341.81;;;23.00;55.28
11985;BME280;6052;53.246;10.368;2023-06-14T00:48:01;101345.88;;;23.16;55.49
11985;BME280;6052;53.246;10.368;2023-06-14T00:50:33;101336.25;;;23.18;55.13
11985;BME280;6052;53.246;10.368;2023-06-14T00:53:04;101341.50;;;23.15;54.91
11985;BME280;6052;53.246;10.368;2023-06-14T00:55:34;101347.50;;;23.17;54.84
11985;BME280;6052;53.246;10.368;2023-06-14T00:58:03;101342.84;;;23.31;54.52
11985;BME280;6052;53.246;10.368;2023-06-14T01:00:32;101344.75;;;23.03;56.00
11985;BME280;6052;53.246;10.368;2023-06-14T01:03:07;101350.38;;;23.25;55.18
11985;BME280;6052;53.246;10.368;2023-06-14T01:05:42;101349.16;;;23.31;55.23
11985;BME280;6052;53.246;10.368;2023-06-14T01:08:22;101345.13;;;22.70;56.19
11985;BME280;6052;53.246;10.368;2023-06-14T01:11:01;101344.34;;;23.10;55.30
11985;BME280;6052;53.246;10.368;2023-06-14T01:13:35;101348.22;;;23.09;55.21
11985;BME280;6052;53.246;10.368;2023-06-14T01:16:08;101352.47;;;22.88;55.50
11985;BME280;6052;53.246;10.368;2023-06-14T01:18:40;101351.91;;;22.59;56.56
11985;BME280;6052;53.246;10.368;2023-06-14T01:21:21;101348.63;;;23.02;55.13
11985;BME280;6052;53.246;10.368;2023-06-14T01:23:53;101360.13;;;22.72;56.05
11985;BME280;6052;53.246;10.368;2023-06-14T01:26:23;101351.44;;;22.84;55.90
11985;BME280;6052;53.246;10.368;2023-06-14T01:28:54;101352.19;;;22.38;57.87
11985;BME280;6052;53.246;10.368;2023-06-14T01:31:27;101358.47;;;22.39;57.13
11985;BME280;6052;53.246;10.368;2023-06-14T01:34:07;101364.06;;;22.15;57.87
11985;BME280;6052;53.246;10.368;2023-06-14T01:36:38;101351.56;;;22.60;56.57
11985;BME280;6052;53.246;10.368;2023-06-14T01:39:15;101351.63;;;22.74;55.90
11985;BME280;6052;53.246;10.368;2023-06-14T01:41:45;101359.47;;;22.48;57.10
11985;BME280;6052;53.246;10.368;2023-06-14T01:44:17;101351.69;;;22.36;57.61
11985;BME280;6052;53.246;10.368;2023-06-14T01:46:48;101348.34;;;22.58;57.03
11985;BME280;6052;53.246;10.368;2023-06-14T01:49:17;101356.56;;;22.58;56.66
11985;BME280;6052;53.246;10.368;2023-06-14T01:51:47;101351.94;;;22.72;56.51
11985;BME280;6052;53.246;10.368;2023-06-14T01:54:19;101350.31;;;22.85;56.39
11985;BME280;6052;53.246;10.368;2023-06-14T01:56:48;101355.53;;;22.54;57.26
11985;BME280;6052;53.246;10.368;2023-06-14T01:59:17;101344.56;;;22.54;57.10
11985;BME280;6052;53.246;10.368;2023-06-14T02:01:47;101349.03;;;22.50;57.36
11985;BME280;6052;53.246;10.368;2023-06-14T02:04:16;101351.84;;;22.45;57.31
11985;BME280;6052;53.246;10.368;2023-06-14T02:06:46;101345.78;;;22.48;56.91
11985;BME280;6052;53.246;10.368;2023-06-14T02:09:15;101348.38;;;22.21;58.25
11985;BME280;6052;53.246;10.368;2023-06-14T02:11:47;101359.59;;;22.38;57.58
11985;BME280;6052;53.246;10.368;2023-06-14T02:14:17;101351.66;;;22.23;58.03
11985;BME280;6052;53.246;10.368;2023-06-14T02:16:46;101356.94;;;22.52;57.44
11985;BME280;6052;53.246;10.368;2023-06-14T02:19:18;101359.91;;;22.36;57.52
11985;BME280;6052;53.246;10.368;2023-06-14T02:21:48;101353.59;;;22.36;58.13
11985;BME280;6052;53.246;10.368;2023-06-14T02:24:17;101354.50;;;22.31;57.48
11985;BME280;6052;53.246;10.368;2023-06-14T02:26:49;101358.66;;;22.29;57.74
11985;BME280;6052;53.246;10.368;2023-06-14T02:29:19;101357.66;;;22.38;58.26
11985;BME280;6052;53.246;10.368;2023-06-14T02:31:48;101366.56;;;22.30;57.89
11985;BME280;6052;53.246;10.368;2023-06-14T02:34:18;101365.25;;;22.28;58.37
11985;BME280;6052;53.246;10.368;2023-06-14T02:36:48;101369.19;;;22.22;58.01
11985;BME280;6052;53.246;10.368;2023-06-14T02:39:19;101358.94;;;22.27;57.85
11985;BME280;6052;53.246;10.368;2023-06-14T02:41:52;101361.88;;;22.31;58.26
11985;BME280;6052;53.246;10.368;2023-06-14T02:44:24;101366.94;;;22.24;57.88
11985;BME280;6052;53.246;10.368;2023-06-14T02:46:54;101365.47;;;21.94;59.08
11985;BME280;6052;53.246;10.368;2023-06-14T02:49:25;101364.28;;;21.82;59.29
11985;BME280;6052;53.246;10.368;2023-06-14T02:51:54;101374.28;;;22.10;58.33
11985;BME280;6052;53.246;10.368;2023-06-14T02:54:24;101371.75;;;22.13;58.23
11985;BME280;6052;53.246;10.368;2023-06-14T02:56:55;101368.44;;;21.98;59.03
11985;BME280;6052;53.246;10.368;2023-06-14T02:59:25;101372.78;;;22.17;58.33
11985;BME280;6052;53.246;10.368;2023-06-14T03:01:54;101375.88;;;22.11;58.08
11985;BME280;6052;53.246;10.368;2023-06-14T03:04:24;101372.81;;;21.80;59.16
11985;BME280;6052;53.246;10.368;2023-06-14T03:06:55;101379.50;;;21.46;60.56
11985;BME280;6052;53.246;10.368;2023-06-14T03:09:25;101379.31;;;21.61;59.95
11985;BME280;6052;53.246;10.368;2023-06-14T03:11:57;101385.00;;;21.88;58.80
11985;BME280;6052;53.246;10.368;2023-06-14T03:14:29;101385.59;;;21.61;59.99
11985;BME280;6052;53.246;10.368;2023-06-14T03:16:59;101402.66;;;21.95;58.98
11985;BME280;6052;53.246;10.368;2023-06-14T03:19:28;101390.13;;;21.71;59.32
11985;BME280;6052;53.246;10.368;2023-06-14T03:21:58;101392.63;;;21.67;59.64
11985;BME280;6052;53.246;10.368;2023-06-14T03:24:31;101392.66;;;21.86;59.08
11985;BME280;6052;53.246;10.368;2023-06-14T03:27:09;101396.72;;;21.70;59.56
11985;BME280;6052;53.246;10.368;2023-06-14T03:29:39;101392.94;;;21.42;60.77
11985;BME280;6052;53.246;10.368;2023-06-14T03:32:08;101393.38;;;21.49;60.70
11985;BME280;6052;53.246;10.368;2023-06-14T03:34:38;101398.06;;;21.49;60.26
11985;BME280;6052;53.246;10.368;2023-06-14T03:37:08;101406.75;;;21.74;60.01
11985;BME280;6052;53.246;10.368;2023-06-14T03:39:37;101411.06;;;21.80;60.05
11985;BME280;6052;53.246;10.368;2023-06-14T03:42:15;101414.22;;;21.69;60.33
11985;BME280;6052;53.246;10.368;2023-06-14T03:44:44;101416.97;;;21.69;60.45
11985;BME280;6052;53.246;10.368;2023-06-14T03:47:14;101419.41;;;21.65;60.16
11985;BME280;6052;53.246;10.368;2023-06-14T03:49:43;101413.72;;;21.62;60.88
11985;BME280;6052;53.246;10.368;2023-06-14T03:52:13;101422.66;;;21.49;60.78
11985;BME280;6052;53.246;10.368;2023-06-14T03:54:43;101429.13;;;21.53;60.94
11985;BME280;6052;53.246;10.368;2023-06-14T03:57:19;101427.47;;;21.33;62.13
11985;BME280;6052;53.246;10.368;2023-06-14T03:59:49;101428.63;;;21.27;62.08
11985;BME280;6052;53.246;10.368;2023-06-14T04:02:18;101433.88;;;21.71;61.20
11985;BME280;6052;53.246;10.368;2023-06-14T04:04:49;101430.97;;;21.39;61.68
11985;BME280;6052;53.246;10.368;2023-06-14T04:07:20;101429.44;;;21.28;62.31
11985;BME280;6052;53.246;10.368;2023-06-14T04:09:51;101438.28;;;21.20;63.11
11985;BME280;6052;53.246;10.368;2023-06-14T04:12:23;101439.91;;;21.44;62.01
11985;BME280;6052;53.246;10.368;2023-06-14T04:14:52;101437.31;;;21.06;63.35
11985;BME280;6052;53.246;10.368;2023-06-14T04:17:37;101436.09;;;21.17;63.33
11985;BME280;6052;53.246;10.368;2023-06-14T04:20:07;101448.69;;;21.41;62.00
11985;BME280;6052;53.246;10.368;2023-06-14T04:22:37;101449.44;;;21.23;63.09
11985;BME280;6052;53.246;10.368;2023-06-14T04:25:08;101441.06;;;21.15;63.20
11985;BME280;6052;53.246;10.368;2023-06-14T04:27:41;101445.69;;;21.14;63.87
11985;BME280;6052;53.246;10.368;2023-06-14T04:30:11;101448.81;;;21.03;64.22
11985;BME280;6052;53.246;10.368;2023-06-14T04:32:40;101458.06;;;21.07;63.88
11985;BME280;6052;53.246;10.368;2023-06-14T04:35:10;101460.25;;;21.33;61.97
11985;BME280;6052;53.246;10.368;2023-06-14T04:37:40;101459.06;;;21.16;63.59
11985;BME280;6052;53.246;10.368;2023-06-14T04:40:10;101457.44;;;21.15;63.17
11985;BME280;6052;53.246;10.368;2023-06-14T04:42:42;101463.97;;;21.42;61.68
11985;BME280;6052;53.246;10.368;2023-06-14T04:45:12;101463.25;;;21.32;62.77
11985;BME280;6052;53.246;10.368;2023-06-14T04:47:43;101464.72;;;21.24;63.04
11985;BME280;6052;53.246;10.368;2023-06-14T04:50:13;101461.03;;;21.39;62.49
11985;BME280;6052;53.246;10.368;2023-06-14T04:52:43;101469.16;;;21.44;62.49
11985;BME280;6052;53.246;10.368;2023-06-14T04:55:12;101466.44;;;21.44;62.27
11985;BME280;6052;53.246;10.368;2023-06-14T04:57:45;101462.91;;;21.15;63.53
11985;BME280;6052;53.246;10.368;2023-06-14T05:00:16;101461.03;;;21.10;63.38
11985;BME280;6052;53.246;10.368;2023-06-14T05:02:45;101467.75;;;21.46;62.55
11985;BME280;6052;53.246;10.368;2023-06-14T05:05:17;101468.53;;;21.23;63.17
11985;BME280;6052;53.246;10.368;2023-06-14T05:07:47;101467.16;;;21.26;63.24
11985;BME280;6052;53.246;10.368;2023-06-14T05:10:17;101471.34;;;21.42;62.66
11985;BME280;6052;53.246;10.368;2023-06-14T05:12:49;101470.78;;;21.45;62.61
11985;BME280;6052;53.246;10.368;2023-06-14T05:15:19;101473.69;;;21.30;63.38
11985;BME280;6052;53.246;10.368;2023-06-14T05:17:52;101472.06;;;21.24;63.16
11985;BME280;6052;53.246;10.368;2023-06-14T05:20:22;101475.25;;;21.07;63.93
11985;BME280;6052;53.246;10.368;2023-06-14T05:22:53;101479.53;;;21.18;63.69
11985;BME280;6052;53.246;10.368;2023-06-14T05:25:23;101477.44;;;21.05;64.01
11985;BME280;6052;53.246;10.368;2023-06-14T05:27:57;101479.09;;;21.35;63.17
11985;BME280;6052;53.246;10.368;2023-06-14T05:30:26;101470.72;;;21.21;63.33
11985;BME280;6052;53.246;10.368;2023-06-14T05:32:57;101467.00;;;21.41;63.36
11985;BME280;6052;53.246;10.368;2023-06-14T05:35:26;101478.84;;;21.31;63.62
11985;BME280;6052;53.246;10.368;2023-06-14T05:37:56;101469.22;;;21.39;63.22
11985;BME280;6052;53.246;10.368;2023-06-14T05:40:25;101468.22;;;21.30;63.10
11985;BME280;6052;53.246;10.368;2023-06-14T05:42:57;101475.56;;;21.29;63.12
11985;BME280;6052;53.246;10.368;2023-06-14T05:45:26;101472.63;;;21.26;63.93
11985;BME280;6052;53.246;10.368;2023-06-14T05:47:56;101477.03;;;21.22;64.05
11985;BME280;6052;53.246;10.368;2023-06-14T05:50:26;101480.97;;;21.11;64.26
11985;BME280;6052;53.246;10.368;2023-06-14T05:52:55;101485.72;;;21.24;63.52
11985;BME280;6052;53.246;10.368;2023-06-14T05:55:24;101484.31;;;21.31;63.40
11985;BME280;6052;53.246;10.368;2023-06-14T05:57:56;101490.69;;;21.22;63.84
11985;BME280;6052;53.246;10.368;2023-06-14T06:00:26;101490.16;;;21.20;64.39
11985;BME280;6052;53.246;10.368;2023-06-14T06:02:55;101490.13;;;21.25;63.79
11985;BME280;6052;53.246;10.368;2023-06-14T06:05:27;101491.31;;;21.42;62.99
11985;BME280;6052;53.246;10.368;2023-06-14T06:07:57;101485.59;;;21.39;64.19
11985;BME280;6052;53.246;10.368;2023-06-14T06:10:26;101491.41;;;21.32;63.49
11985;BME280;6052;53.246;10.368;2023-06-14T06:12:58;101493.13;;;21.23;63.74
11985;BME280;6052;53.246;10.368;2023-06-14T06:15:28;101488.91;;;21.36;63.64
11985;BME280;6052;53.246;10.368;2023-06-14T06:17:57;101489.06;;;21.21;64.15
11985;BME280;6052;53.246;10.368;2023-06-14T06:20:27;101490.97;;;21.20;63.84
11985;BME280;6052;53.246;10.368;2023-06-14T06:22:58;101497.63;;;21.38;63.56
11985;BME280;6052;53.246;10.368;2023-06-14T06:25:28;101491.75;;;21.26;64.54
11985;BME280;6052;53.246;10.368;2023-06-14T06:28:01;101491.47;;;21.27;64.49
11985;BME280;6052;53.246;10.368;2023-06-14T06:30:30;101494.38;;;21.36;65.20
11985;BME280;6052;53.246;10.368;2023-06-14T06:32:59;101507.63;;;21.19;64.64
11985;BME280;6052;53.246;10.368;2023-06-14T06:35:29;101511.69;;;20.93;65.74
11985;BME280;6052;53.246;10.368;2023-06-14T06:38:00;101510.50;;;21.04;64.74
11985;BME280;6052;53.246;10.368;2023-06-14T06:40:29;101507.06;;;21.22;64.07
11985;BME280;6052;53.246;10.368;2023-06-14T06:43:01;101513.22;;;21.37;64.19
11985;BME280;6052;53.246;10.368;2023-06-14T06:45:31;101502.09;;;21.29;64.17
11985;BME280;6052;53.246;10.368;2023-06-14T06:48:00;101507.94;;;21.46;63.51
11985;BME280;6052;53.246;10.368;2023-06-14T06:50:30;101514.16;;;21.23;64.71
11985;BME280;6052;53.246;10.368;2023-06-14T06:53:01;101519.31;;;21.53;64.00
11985;BME280;6052;53.246;10.368;2023-06-14T06:55:30;101514.91;;;21.57;64.07
11985;BME280;6052;53.246;10.368;2023-06-14T06:58:02;101517.34;;;21.35;64.96
11985;BME280;6052;53.246;10.368;2023-06-14T07:00:32;101509.06;;;21.11;64.67
11985;BME280;6052;53.246;10.368;2023-06-14T07:03:01;101524.22;;;21.27;65.00
11985;BME280;6052;53.246;10.368;2023-06-14T07:05:31;101521.56;;;21.22;65.84
11985;BME280;6052;53.246;10.368;2023-06-14T07:08:00;101517.78;;;21.42;65.13
11985;BME280;6052;53.246;10.368;2023-06-14T07:10:30;101530.88;;;21.73;64.31
11985;BME280;6052;53.246;10.368;2023-06-14T07:13:02;101523.22;;;21.75;65.63
11985;BME280;6052;53.246;10.368;2023-06-14T07:15:34;101518.66;;;21.89;64.65
11985;BME280;6052;53.246;10.368;2023-06-14T07:18:04;101515.59;;;21.96;65.09
11985;BME280;6052;53.246;10.368;2023-06-14T07:20:34;101520.06;;;21.87;64.65
11985;BME280;6052;53.246;10.368;2023-06-14T07:23:04;101513.13;;;22.18;63.47
11985;BME280;6052;53.246;10.368;2023-06-14T07:25:34;101513.13;;;22.36;65.17
11985;BME280;6052;53.246;10.368;2023-06-14T07:28:06;101501.97;;;22.33;64.51
11985;BME280;6052;53.246;10.368;2023-06-14T07:30:35;101509.69;;;22.50;65.20
11985;BME280;6052;53.246;10.368;2023-06-14T07:33:05;101512.66;;;22.53;64.55
11985;BME280;6052;53.246;10.368;2023-06-14T07:35:35;101514.50;;;22.76;64.50
11985;BME280;6052;53.246;10.368;2023-06-14T07:38:08;101514.41;;;22.81;63.10
11985;BME280;6052;53.246;10.368;2023-06-14T07:40:37;101513.63;;;22.62;63.50
11985;BME280;6052;53.246;10.368;2023-06-14T07:43:09;101513.44;;;22.91;63.12
11985;BME280;6052;53.246;10.368;2023-06-14T07:45:38;101519.53;;;23.20;63.72
11985;BME280;6052;53.246;10.368;2023-06-14T07:48:23;101519.09;;;23.45;62.97
11985;BME280;6052;53.246;10.368;2023-06-14T07:50:55;101511.06;;;23.48;61.19
11985;BME280;6052;53.246;10.368;2023-06-14T07:53:24;101515.22;;;23.46;61.59
11985;BME280;6052;53.246;10.368;2023-06-14T07:55:54;101518.31;;;23.44;61.75
11985;BME280;6052;53.246;10.368;2023-06-14T07:58:26;101507.75;;;23.65;61.52
11985;BME280;6052;53.246;10.368;2023-06-14T08:00:55;101507.19;;;23.22;59.69
11985;BME280;6052;53.246;10.368;2023-06-14T08:03:26;101510.78;;;23.18;59.69
11985;BME280;6052;53.246;10.368;2023-06-14T08:05:56;101517.75;;;23.29;59.85
11985;BME280;6052;53.246;10.368;2023-06-14T08:08:27;101515.38;;;23.81;61.23
11985;BME280;6052;53.246;10.368;2023-06-14T08:10:56;101515.78;;;23.88;59.74
11985;BME280;6052;53.246;10.368;2023-06-14T08:13:28;101511.94;;;24.52;58.94
11985;BME280;6052;53.246;10.368;2023-06-14T08:15:58;101506.75;;;23.88;58.30
11985;BME280;6052;53.246;10.368;2023-06-14T08:18:28;101510.72;;;23.95;58.26
11985;BME280;6052;53.246;10.368;2023-06-14T08:20:57;101512.06;;;24.47;58.92
11985;BME280;6052;53.246;10.368;2023-06-14T08:23:29;101505.31;;;24.04;58.14
11985;BME280;6052;53.246;10.368;2023-06-14T08:25:58;101512.00;;;24.38;58.28
11985;BME280;6052;53.246;10.368;2023-06-14T08:28:33;101506.56;;;24.60;57.58
11985;BME280;6052;53.246;10.368;2023-06-14T08:31:02;101510.47;;;24.81;56.28
11985;BME280;6052;53.246;10.368;2023-06-14T08:33:32;101500.53;;;24.58;57.22
11985;BME280;6052;53.246;10.368;2023-06-14T08:36:02;101506.13;;;25.11;57.81
11985;BME280;6052;53.246;10.368;2023-06-14T08:38:32;101504.56;;;25.18;55.95
11985;BME280;6052;53.246;10.368;2023-06-14T08:41:02;101499.44;;;25.25;57.24
11985;BME280;6052;53.246;10.368;2023-06-14T08:43:36;101505.09;;;24.76;57.05
11985;BME280;6052;53.246;10.368;2023-06-14T08:46:08;101504.53;;;24.88;58.03
11985;BME280;6052;53.246;10.368;2023-06-14T08:48:39;101509.44;;;24.99;58.38
11985;BME280;6052;53.246;10.368;2023-06-14T08:51:10;101503.25;;;25.68;58.10
11985;BME280;6052;53.246;10.368;2023-06-14T08:53:42;101516.06;;;25.20;56.35
11985;BME280;6052;53.246;10.368;2023-06-14T08:56:12;101513.53;;;25.54;57.25
11985;BME280;6052;53.246;10.368;2023-06-14T08:58:46;101504.16;;;25.55;54.64
11985;BME280;6052;53.246;10.368;2023-06-14T09:01:16;101521.59;;;25.51;55.68
11985;BME280;6052;53.246;10.368;2023-06-14T09:03:45;101510.66;;;25.59;55.32
11985;BME280;6052;53.246;10.368;2023-06-14T09:06:16;101512.31;;;25.38;55.23
11985;BME280;6052;53.246;10.368;2023-06-14T09:08:46;101510.72;;;25.76;55.06
11985;BME280;6052;53.246;10.368;2023-06-14T09:11:17;101505.22;;;25.76;54.37
11985;BME280;6052;53.246;10.368;2023-06-14T09:13:50;101509.69;;;25.64;55.47
11985;BME280;6052;53.246;10.368;2023-06-14T09:16:19;101509.84;;;25.59;54.00
11985;BME280;6052;53.246;10.368;2023-06-14T09:18:49;101517.31;;;26.06;53.57
11985;BME280;6052;53.246;10.368;2023-06-14T09:21:19;101504.69;;;26.05;54.18
11985;BME280;6052;53.246;10.368;2023-06-14T09:23:48;101505.47;;;25.97;53.56
11985;BME280;6052;53.246;10.368;2023-06-14T09:26:18;101492.72;;;26.01;53.83
11985;BME280;6052;53.246;10.368;2023-06-14T09:28:52;101508.09;;;26.02;53.36
11985;BME280;6052;53.246;10.368;2023-06-14T09:31:21;101500.97;;;26.09;53.17
11985;BME280;6052;53.246;10.368;2023-06-14T09:33:51;101496.50;;;25.91;52.59
11985;BME280;6052;53.246;10.368;2023-06-14T09:36:24;101491.44;;;26.15;53.07
11985;BME280;6052;53.246;10.368;2023-06-14T09:38:55;101505.41;;;26.27;52.50
11985;BME280;6052;53.246;10.368;2023-06-14T09:41:30;101503.56;;;26.06;53.29
11985;BME280;6052;53.246;10.368;2023-06-14T09:44:05;101498.06;;;26.14;52.92
11985;BME280;6052;53.246;10.368;2023-06-14T09:46:41;101504.25;;;26.45;52.36
11985;BME280;6052;53.246;10.368;2023-06-14T09:49:10;101503.19;;;26.63;52.50
11985;BME280;6052;53.246;10.368;2023-06-14T09:51:43;101500.34;;;25.73;52.19
11985;BME280;6052;53.246;10.368;2023-06-14T09:54:15;101496.47;;;26.30;52.27
11985;BME280;6052;53.246;10.368;2023-06-14T09:56:47;101494.78;;;25.95;52.07
11985;BME280;6052;53.246;10.368;2023-06-14T09:59:21;101498.69;;;26.03;51.86
11985;BME280;6052;53.246;10.368;2023-06-14T10:01:57;101493.56;;;25.71;51.89
11985;BME280;6052;53.246;10.368;2023-06-14T10:04:28;101487.88;;;26.23;52.05
11985;BME280;6052;53.246;10.368;2023-06-14T10:06:59;101497.28;;;26.39;50.69
11985;BME280;6052;53.246;10.368;2023-06-14T10:09:30;101490.34;;;26.33;50.34
11985;BME280;6052;53.246;10.368;2023-06-14T10:12:00;101479.00;;;26.52;50.86
11985;BME280;6052;53.246;10.368;2023-06-14T10:14:33;101485.47;;;26.47;50.06
11985;BME280;6052;53.246;10.368;2023-06-14T10:17:06;101490.31;;;26.50;50.73
11985;BME280;6052;53.246;10.368;2023-06-14T10:19:43;101487.56;;;26.50;49.92
11985;BME280;6052;53.246;10.368;2023-06-14T10:22:18;101486.91;;;27.04;49.06
11985;BME280;6052;53.246;10.368;2023-06-14T10:24:49;101477.91;;;26.61;49.58
11985;BME280;6052;53.246;10.368;2023-06-14T10:27:19;101476.91;;;26.83;49.21
11985;BME280;6052;53.246;10.368;2023-06-14T10:30:14;101474.97;;;26.66;49.30
11985;BME280;6052;53.246;10.368;2023-06-14T10:33:05;101473.78;;;27.01;49.35
11985;BME280;6052;53.246;10.368;2023-06-14T10:35:36;101473.66;;;26.98;49.50
11985;BME280;6052;53.246;10.368;2023-06-14T10:38:07;101470.41;;;26.70;49.36
11985;BME280;6052;53.246;10.368;2023-06-14T10:40:37;101473.16;;;26.96;48.62
11985;BME280;6052;53.246;10.368;2023-06-14T10:43:24;101470.59;;;26.82;48.74
11985;BME280;6052;53.246;10.368;2023-06-14T10:46:14;101466.66;;;26.92;48.41
11985;BME280;6052;53.246;10.368;2023-06-14T10:48:44;101462.53;;;27.40;48.17
11985;BME280;6052;53.246;10.368;2023-06-14T10:51:18;101458.19;;;27.14;47.67
11985;BME280;6052;53.246;10.368;2023-06-14T10:53:49;101456.94;;;26.18;47.80
11985;BME280;6052;53.246;10.368;2023-06-14T10:56:29;101459.53;;;26.14;48.33
11985;BME280;6052;53.246;10.368;2023-06-14T10:58:59;101453.22;;;26.39;48.42
11985;BME280;6052;53.246;10.368;2023-06-14T11:01:36;101460.16;;;27.05;48.58
11985;BME280;6052;53.246;10.368;2023-06-14T11:04:08;101454.78;;;27.08;47.33
11985;BME280;6052;53.246;10.368;2023-06-14T11:06:59;101454.06;;;26.74;47.73
11985;BME280;6052;53.246;10.368;2023-06-14T11:09:51;101445.78;;;26.82;47.18
11985;BME280;6052;53.246;10.368;2023-06-14T11:12:24;101439.63;;;26.77;47.56
11985;BME280;6052;53.246;10.368;2023-06-14T11:14:56;101434.09;;;26.77;47.45
11985;BME280;6052;53.246;10.368;2023-06-14T11:17:28;101440.94;;;26.62;47.96
11985;BME280;6052;53.246;10.368;2023-06-14T11:20:10;101437.34;;;26.70;47.88
11985;BME280;6052;53.246;10.368;2023-06-14T11:22:47;101436.06;;;26.42;48.02
11985;BME280;6052;53.246;10.368;2023-06-14T11:25:17;101444.31;;;26.51;47.94
11985;BME280;6052;53.246;10.368;2023-06-14T11:27:49;101434.91;;;26.52;47.54
11985;BME280;6052;53.246;10.368;2023-06-14T11:30:18;101431.81;;;26.36;47.37
11985;BME280;6052;53.246;10.368;2023-06-14T11:32:51;101433.44;;;26.54;48.33
11985;BME280;6052;53.246;10.368;2023-06-14T11:35:24;101421.63;;;26.45;48.12
11985;BME280;6052;53.246;10.368;2023-06-14T11:37:54;101417.75;;;26.29;47.34
11985;BME280;6052;53.246;10.368;2023-06-14T11:40:26;101425.19;;;26.54;47.91
11985;BME280;6052;53.246;10.368;2023-06-14T11:42:58;101423.44;;;26.58;47.72
11985;BME280;6052;53.246;10.368;2023-06-14T11:45:29;101423.25;;;26.38;47.95
11985;BME280;6052;53.246;10.368;2023-06-14T11:48:01;101414.34;;;26.41;47.74
11985;BME280;6052;53.246;10.368;2023-06-14T11:50:31;101410.63;;;26.28;48.02
11985;BME280;6052;53.246;10.368;2023-06-14T11:53:01;101408.34;;;26.22;47.80
11985;BME280;6052;53.246;10.368;2023-06-14T11:55:36;101399.13;;;26.09;48.16
11985;BME280;6052;53.246;10.368;2023-06-14T11:58:06;101401.38;;;26.24;48.06
11985;BME280;6052;53.246;10.368;2023-06-14T12:00:36;101407.63;;;25.82;48.29
11985;BME280;6052;53.246;10.368;2023-06-14T12:03:09;101394.69;;;25.74;48.06
11985;BME280;6052;53.246;10.368;2023-06-14T12:05:39;101409.00;;;26.02;48.52
11985;BME280;6052;53.246;10.368;2023-06-14T12:08:08;101404.13;;;25.99;48.54
11985;BME280;6052;53.246;10.368;2023-06-14T12:10:43;101395.22;;;26.02;48.55
11985;BME280;6052;53.246;10.368;2023-06-14T12:13:17;101391.66;;;26.01;48.16
11985;BME280;6052;53.246;10.368;2023-06-14T12:15:54;101394.59;;;26.13;47.65
11985;BME280;6052;53.246;10.368;2023-06-14T12:18:34;101396.38;;;26.18;48.00
11985;BME280;6052;53.246;10.368;2023-06-14T12:21:04;101389.56;;;26.07;48.20
11985;BME280;6052;53.246;10.368;2023-06-14T12:23:43;101403.34;;;26.07;48.20
11985;BME280;6052;53.246;10.368;2023-06-14T12:26:13;101393.44;;;26.23;48.37
11985;BME280;6052;53.246;10.368;2023-06-14T12:28:45;101392.16;;;26.12;47.46
11985;BME280;6052;53.246;10.368;2023-06-14T12:31:15;101387.63;;;26.07;48.19
11985;BME280;6052;53.246;10.368;2023-06-14T12:33:48;101387.56;;;25.90;47.55
11985;BME280;6052;53.246;10.368;2023-06-14T12:36:19;101386.97;;;26.19;48.16
11985;BME280;6052;53.246;10.368;2023-06-14T12:38:49;101377.22;;;26.47;46.87
11985;BME280;6052;53.246;10.368;2023-06-14T12:41:20;101389.88;;;26.48;47.59
11985;BME280;6052;53.246;10.368;2023-06-14T12:43:51;101386.00;;;26.40;47.03
11985;BME280;6052;53.246;10.368;2023-06-14T12:46:20;101384.53;;;26.51;46.73
11985;BME280;6052;53.246;10.368;2023-06-14T12:48:52;101392.16;;;26.46;46.47
11985;BME280;6052;53.246;10.368;2023-06-14T12:51:22;101392.66;;;26.56;46.99
11985;BME280;6052;53.246;10.368;2023-06-14T12:53:52;101386.31;;;26.64;47.14
11985;BME280;6052;53.246;10.368;2023-06-14T12:56:21;101380.97;;;26.42;46.72
11985;BME280;6052;53.246;10.368;2023-06-14T12:58:51;101376.28;;;26.34;46.10
11985;BME280;6052;53.246;10.368;2023-06-14T13:01:20;101382.72;;;26.55;45.89
11985;BME280;6052;53.246;10.368;2023-06-14T13:03:52;101369.78;;;26.39;45.69
11985;BME280;6052;53.246;10.368;2023-06-14T13:06:23;101378.06;;;26.47;45.78
11985;BME280;6052;53.246;10.368;2023-06-14T13:08:52;101375.13;;;26.52;46.90
11985;BME280;6052;53.246;10.368;2023-06-14T13:11:24;101378.69;;;26.70;46.51